createdAt,value
2017-06-10T00:00:00.174Z,15.78
2017-06-10T00:01:00.174Z,15.72
2017-06-10T00:02:00.165Z,15.71
2017-06-10T00:03:00.159Z,15.8
2017-06-10T00:03:59.858Z,15.76
2017-06-10T00:05:00.152Z,15.78
2017-06-10T00:06:00.150Z,15.69
2017-06-10T00:07:00.144Z,15.78
2017-06-10T00:08:00.140Z,15.75
2017-06-10T00:09:00.133Z,15.67
2017-06-10T00:10:00.131Z,15.59
2017-06-10T00:11:00.126Z,15.67
2017-06-10T00:11:59.822Z,15.59
2017-06-10T00:13:00.119Z,15.6
2017-06-10T00:14:00.116Z,15.6
2017-06-10T00:14:59.811Z,15.67
2017-06-10T00:16:00.107Z,15.54
2017-06-10T00:17:00.102Z,15.56
2017-06-10T00:18:00.098Z,15.53
2017-06-10T00:19:00.095Z,15.53
2017-06-10T00:20:00.090Z,15.51
2017-06-10T00:21:00.085Z,15.53
2017-06-10T00:22:00.081Z,15.51
2017-06-10T00:23:00.080Z,15.5
2017-06-10T00:24:00.081Z,15.54
2017-06-10T00:24:59.765Z,15.6
2017-06-10T00:26:00.070Z,15.53
2017-06-10T00:26:59.761Z,15.53
2017-06-10T00:28:00.056Z,15.51
2017-06-10T00:28:59.753Z,15.53
2017-06-10T00:30:00.047Z,15.54
2017-06-10T00:31:00.044Z,15.59
2017-06-10T00:32:00.041Z,15.49
2017-06-10T00:33:00.035Z,15.64
2017-06-10T00:34:00.033Z,15.53
2017-06-10T00:35:00.027Z,15.54
2017-06-10T00:36:00.026Z,15.53
2017-06-10T00:37:00.023Z,15.56
2017-06-10T00:38:00.018Z,15.56
2017-06-10T00:39:00.013Z,15.53
2017-06-10T00:40:00.005Z,15.57
2017-06-10T00:41:00.002Z,15.54
2017-06-10T00:41:59.996Z,15.5
2017-06-10T00:42:59.696Z,15.36
2017-06-10T00:43:59.988Z,15.49
2017-06-10T00:44:59.987Z,15.46
2017-06-10T00:45:59.980Z,15.49
2017-06-10T00:46:59.974Z,15.29
2017-06-10T00:47:59.969Z,15.27
2017-06-10T00:48:59.968Z,15.34
2017-06-10T00:49:59.962Z,15.32
2017-06-10T00:50:59.958Z,15.23
2017-06-10T00:51:59.954Z,15.29
2017-06-10T00:52:59.953Z,15.17
2017-06-10T00:53:59.642Z,15.16
2017-06-10T00:54:59.639Z,15.14
2017-06-10T00:55:59.936Z,15.17
2017-06-10T00:56:59.930Z,15.16
2017-06-10T00:57:59.628Z,15.19
2017-06-10T00:58:59.921Z,15.14
2017-06-10T00:59:59.922Z,15.13
2017-06-10T01:00:59.914Z,15.11
2017-06-10T01:01:59.912Z,15.17
2017-06-10T01:02:59.607Z,15.16
2017-06-10T01:03:59.907Z,15.14
2017-06-10T01:04:59.897Z,15.16
2017-06-10T01:05:59.892Z,15.17
2017-06-10T01:06:59.886Z,15.19
2017-06-10T01:07:59.884Z,15.2
2017-06-10T01:08:59.878Z,15.16
2017-06-10T01:09:59.873Z,15.21
2017-06-10T01:10:59.869Z,15.23
2017-06-10T01:11:59.562Z,15.36
2017-06-10T01:12:59.862Z,15.31
2017-06-10T01:13:59.860Z,15.32
2017-06-10T01:14:59.547Z,15.43
2017-06-10T01:15:59.870Z,15.41
2017-06-10T01:16:59.841Z,15.36
2017-06-10T01:17:59.839Z,15.46
2017-06-10T01:18:59.835Z,15.44
2017-06-10T01:19:59.830Z,15.41
2017-06-10T01:20:59.821Z,15.51
2017-06-10T01:21:59.819Z,15.54
2017-06-10T01:22:59.815Z,15.53
2017-06-10T01:23:59.810Z,15.5
2017-06-10T01:24:59.812Z,15.62
2017-06-10T01:25:59.802Z,15.64
2017-06-10T01:26:59.495Z,15.69
2017-06-10T01:27:59.793Z,15.62
2017-06-10T01:28:59.788Z,15.74
2017-06-10T01:29:59.785Z,15.74
2017-06-10T01:30:59.780Z,15.74
2017-06-10T01:31:59.777Z,15.76
2017-06-10T01:32:59.771Z,15.72
2017-06-10T01:33:59.772Z,15.8
2017-06-10T01:34:59.767Z,15.9
2017-06-10T01:35:59.761Z,15.92
2017-06-10T01:36:59.754Z,15.94
2017-06-10T01:37:59.749Z,15.96
2017-06-10T01:38:59.744Z,15.96
2017-06-10T01:39:59.741Z,16.02
2017-06-10T01:40:59.744Z,16
2017-06-10T01:41:59.736Z,16.01
2017-06-10T01:42:59.731Z,15.97
2017-06-10T01:43:59.726Z,16.01
2017-06-10T01:44:59.720Z,15.93
2017-06-10T01:45:59.717Z,16.05
2017-06-10T01:46:59.710Z,15.96
2017-06-10T01:47:59.708Z,15.97
2017-06-10T01:48:59.704Z,16
2017-06-10T01:49:59.709Z,16.04
2017-06-10T01:50:59.393Z,15.97
2017-06-10T01:51:59.691Z,16
2017-06-10T01:52:59.688Z,16
2017-06-10T01:53:59.682Z,15.97
2017-06-10T01:54:59.678Z,15.97
2017-06-10T01:55:59.674Z,16.01
2017-06-10T01:56:59.670Z,15.96
2017-06-10T01:57:59.667Z,15.96
2017-06-10T01:58:59.368Z,16
2017-06-10T01:59:59.657Z,15.92
2017-06-10T02:00:59.352Z,15.89
2017-06-10T02:01:59.657Z,15.86
2017-06-10T02:02:59.648Z,15.84
2017-06-10T02:03:59.642Z,15.74
2017-06-10T02:04:59.638Z,15.82
2017-06-10T02:05:59.633Z,15.72
2017-06-10T02:06:59.639Z,15.72
2017-06-10T02:07:59.632Z,15.65
2017-06-10T02:08:59.625Z,15.64
2017-06-10T02:09:59.317Z,15.64
2017-06-10T02:10:59.612Z,15.67
2017-06-10T02:11:59.609Z,15.62
2017-06-10T02:12:59.604Z,15.74
2017-06-10T02:13:59.611Z,15.74
2017-06-10T02:14:59.597Z,15.65
2017-06-10T02:15:59.619Z,15.78
2017-06-10T02:16:59.588Z,15.8
2017-06-10T02:17:59.583Z,15.83
2017-06-10T02:18:59.591Z,15.78
2017-06-10T02:19:59.274Z,15.78
2017-06-10T02:20:59.570Z,15.89
2017-06-10T02:21:59.268Z,15.89
2017-06-10T02:22:59.260Z,15.86
2017-06-10T02:23:58.953Z,15.83
2017-06-10T02:24:59.252Z,15.84
2017-06-10T02:25:59.554Z,15.76
2017-06-10T02:26:59.546Z,15.74
2017-06-10T02:27:59.540Z,15.74
2017-06-10T02:28:59.235Z,15.72
2017-06-10T02:29:59.533Z,15.65
2017-06-10T02:30:59.530Z,15.64
2017-06-10T02:31:59.550Z,15.67
2017-06-10T02:32:59.522Z,15.59
2017-06-10T02:33:59.516Z,15.6
2017-06-10T02:34:59.511Z,15.59
2017-06-10T02:35:59.512Z,15.53
2017-06-10T02:36:59.500Z,15.53
2017-06-10T02:37:59.496Z,15.56
2017-06-10T02:38:59.493Z,15.5
2017-06-10T02:39:59.492Z,15.49
2017-06-10T02:40:59.492Z,15.51
2017-06-10T02:41:59.479Z,15.46
2017-06-10T02:42:59.495Z,15.46
2017-06-10T02:43:59.172Z,15.41
2017-06-10T02:44:59.166Z,15.34
2017-06-10T02:45:59.464Z,15.41
2017-06-10T02:46:59.459Z,15.38
2017-06-10T02:47:59.453Z,15.34
2017-06-10T02:48:59.452Z,15.27
2017-06-10T02:49:59.455Z,15.35
2017-06-10T02:50:59.442Z,15.34
2017-06-10T02:51:59.437Z,15.36
2017-06-10T02:52:59.431Z,15.36
2017-06-10T02:53:59.427Z,15.36
2017-06-10T02:54:59.423Z,15.32
2017-06-10T02:55:59.417Z,15.32
2017-06-10T02:56:59.414Z,15.34
2017-06-10T02:57:59.416Z,15.34
2017-06-10T02:58:59.403Z,15.28
2017-06-10T02:59:59.404Z,15.35
2017-06-10T03:00:59.092Z,15.38
2017-06-10T03:01:59.089Z,15.38
2017-06-10T03:02:59.388Z,15.34
2017-06-10T03:03:59.388Z,15.32
2017-06-10T03:04:59.376Z,15.44
2017-06-10T03:05:59.380Z,15.41
2017-06-10T03:06:59.372Z,15.38
2017-06-10T03:07:59.363Z,15.44
2017-06-10T03:08:59.364Z,15.31
2017-06-10T03:09:59.355Z,15.43
2017-06-10T03:10:59.049Z,15.44
2017-06-10T03:11:59.047Z,15.39
2017-06-10T03:12:59.343Z,15.46
2017-06-10T03:13:59.035Z,15.49
2017-06-10T03:14:59.058Z,15.51
2017-06-10T03:15:59.328Z,15.54
2017-06-10T03:16:59.022Z,15.56
2017-06-10T03:17:59.317Z,15.53
2017-06-10T03:18:59.314Z,15.62
2017-06-10T03:19:59.312Z,15.65
2017-06-10T03:20:59.306Z,15.69
2017-06-10T03:21:59.300Z,15.68
2017-06-10T03:22:59.305Z,15.74
2017-06-10T03:23:59.298Z,15.78
2017-06-10T03:24:59.290Z,15.82
2017-06-10T03:25:59.284Z,15.87
2017-06-10T03:26:59.280Z,15.87
2017-06-10T03:27:59.275Z,15.97
2017-06-10T03:28:59.271Z,15.96
2017-06-10T03:29:59.269Z,15.94
2017-06-10T03:30:59.264Z,15.96
2017-06-10T03:31:59.258Z,16.02
2017-06-10T03:32:59.253Z,16.07
2017-06-10T03:33:59.251Z,16.08
2017-06-10T03:34:59.245Z,16.12
2017-06-10T03:35:59.240Z,16.12
2017-06-10T03:36:59.241Z,16.17
2017-06-10T03:37:59.233Z,16.21
2017-06-10T03:38:59.229Z,16.27
2017-06-10T03:39:59.227Z,16.24
2017-06-10T03:40:59.223Z,16.33
2017-06-10T03:41:59.218Z,16.35
2017-06-10T03:42:59.214Z,16.46
2017-06-10T03:43:59.209Z,16.35
2017-06-10T03:44:58.906Z,16.43
2017-06-10T03:45:58.898Z,16.46
2017-06-10T03:46:59.200Z,16.46
2017-06-10T03:47:59.195Z,16.41
2017-06-10T03:48:59.196Z,16.43
2017-06-10T03:49:59.186Z,16.45
2017-06-10T03:50:59.182Z,16.3
2017-06-10T03:51:59.176Z,16.28
2017-06-10T03:52:59.180Z,16.27
2017-06-10T03:53:59.170Z,16.25
2017-06-10T03:54:59.170Z,16.28
2017-06-10T03:55:59.168Z,16.21
2017-06-10T03:56:59.189Z,16.21
2017-06-10T03:57:59.154Z,16.3
2017-06-10T03:58:59.150Z,16.33
2017-06-10T03:59:59.145Z,16.35
2017-06-10T04:00:59.144Z,16.43
2017-06-10T04:01:59.136Z,16.58
2017-06-10T04:02:59.133Z,16.7
2017-06-10T04:03:59.129Z,16.76
2017-06-10T04:04:59.130Z,16.94
2017-06-10T04:05:59.123Z,16.94
2017-06-10T04:06:59.122Z,17
2017-06-10T04:07:59.117Z,17.07
2017-06-10T04:08:59.111Z,17.14
2017-06-10T04:09:59.115Z,17.21
2017-06-10T04:10:59.107Z,17.41
2017-06-10T04:11:59.105Z,17.56
2017-06-10T04:12:59.099Z,17.63
2017-06-10T04:13:58.796Z,17.79
2017-06-10T04:14:58.790Z,17.86
2017-06-10T04:15:59.092Z,17.92
2017-06-10T04:16:59.093Z,18.14
2017-06-10T04:17:59.089Z,18.21
2017-06-10T04:18:59.087Z,18.3
2017-06-10T04:19:59.082Z,18.41
2017-06-10T04:20:59.081Z,18.69
2017-06-10T04:21:59.076Z,19.06
2017-06-10T04:22:59.073Z,19.19
2017-06-10T04:23:59.076Z,19.56
2017-06-10T04:24:59.073Z,19.92
2017-06-10T04:25:59.075Z,20.2
2017-06-10T04:26:59.069Z,20.52
2017-06-10T04:27:59.098Z,20.79
2017-06-10T04:28:59.067Z,21.16
2017-06-10T04:29:59.067Z,21.54
2017-06-10T04:30:59.068Z,21.9
2017-06-10T04:31:59.067Z,22.28
2017-06-10T04:32:58.765Z,22.52
2017-06-10T04:33:59.068Z,22.95
2017-06-10T04:34:59.070Z,23.22
2017-06-10T04:35:59.071Z,23.72
2017-06-10T04:36:59.075Z,24.08
2017-06-10T04:37:59.078Z,24.3
2017-06-10T04:38:59.080Z,24.69
2017-06-10T04:39:59.084Z,25.03
2017-06-10T04:40:59.085Z,25.38
2017-06-10T04:41:59.088Z,25.72
2017-06-10T04:42:59.092Z,26.17
2017-06-10T04:43:59.098Z,26.52
2017-06-10T04:44:59.103Z,26.82
2017-06-10T04:45:59.108Z,27.07
2017-06-10T04:46:59.113Z,27.47
2017-06-10T04:47:58.815Z,27.84
2017-06-10T04:48:59.124Z,28.07
2017-06-10T04:49:58.830Z,28.25
2017-06-10T04:50:58.532Z,28.44
2017-06-10T04:51:59.145Z,28.64
2017-06-10T04:52:58.850Z,28.88
2017-06-10T04:53:59.158Z,29.18
2017-06-10T04:54:59.167Z,29.6
2017-06-10T04:55:59.174Z,29.78
2017-06-10T04:56:59.183Z,29.94
2017-06-10T04:57:59.190Z,30.15
2017-06-10T04:58:59.212Z,30.34
2017-06-10T04:59:58.906Z,30.47
2017-06-10T05:00:59.221Z,30.8
2017-06-10T05:01:59.226Z,31.06
2017-06-10T05:02:58.932Z,31.28
2017-06-10T05:03:59.245Z,31.54
2017-06-10T05:04:59.254Z,31.76
2017-06-10T05:05:59.267Z,31.89
2017-06-10T05:06:59.274Z,32
2017-06-10T05:07:59.283Z,32.22
2017-06-10T05:08:59.292Z,32.59
2017-06-10T05:09:59.306Z,32.59
2017-06-10T05:10:59.011Z,32.67
2017-06-10T05:11:59.323Z,32.81
2017-06-10T05:12:59.336Z,32.88
2017-06-10T05:13:59.047Z,33.01
2017-06-10T05:14:59.357Z,33.12
2017-06-10T05:15:59.367Z,33.21
2017-06-10T05:16:59.381Z,33.39
2017-06-10T05:17:59.390Z,33.59
2017-06-10T05:18:59.403Z,33.6
2017-06-10T05:19:59.411Z,33.78
2017-06-10T05:20:59.426Z,33.81
2017-06-10T05:21:59.436Z,33.95
2017-06-10T05:22:59.457Z,33.97
2017-06-10T05:23:59.461Z,34.06
2017-06-10T05:24:59.471Z,34
2017-06-10T05:25:59.484Z,34.05
2017-06-10T05:26:59.500Z,34.06
2017-06-10T05:27:59.510Z,34.1
2017-06-10T05:28:59.525Z,34.09
2017-06-10T05:29:59.531Z,34.17
2017-06-10T05:30:59.545Z,34.13
2017-06-10T05:31:59.557Z,34.17
2017-06-10T05:32:59.568Z,34.17
2017-06-10T05:33:59.581Z,34.35
2017-06-10T05:34:59.593Z,34.42
2017-06-10T05:35:59.607Z,34.49
2017-06-10T05:36:59.622Z,34.56
2017-06-10T05:37:59.631Z,34.8
2017-06-10T05:38:59.645Z,34.91
2017-06-10T05:39:59.658Z,34.94
2017-06-10T05:40:59.674Z,35.07
2017-06-10T05:41:59.685Z,35.1
2017-06-10T05:42:59.703Z,35.19
2017-06-10T05:43:59.709Z,35.29
2017-06-10T05:44:59.725Z,35.29
2017-06-10T05:45:59.734Z,35.36
2017-06-10T05:46:59.751Z,35.44
2017-06-10T05:47:59.767Z,35.48
2017-06-10T05:48:59.781Z,35.65
2017-06-10T05:49:59.790Z,35.68
2017-06-10T05:50:59.811Z,35.9
2017-06-10T05:51:59.820Z,35.94
2017-06-10T05:52:59.534Z,36.05
2017-06-10T05:53:59.850Z,36.09
2017-06-10T05:54:59.890Z,36.09
2017-06-10T05:55:59.873Z,36.23
2017-06-10T05:56:59.887Z,36.27
2017-06-10T05:57:59.901Z,36.27
2017-06-10T05:58:59.920Z,36.25
2017-06-10T05:59:59.929Z,36.16
2017-06-10T06:00:59.643Z,36.15
2017-06-10T06:01:59.964Z,36.15
2017-06-10T06:02:59.972Z,36.34
2017-06-10T06:04:00.002Z,36.37
2017-06-10T06:05:00.006Z,36.56
2017-06-10T06:06:00.020Z,36.66
2017-06-10T06:07:00.033Z,36.8
2017-06-10T06:08:00.050Z,36.83
2017-06-10T06:09:00.065Z,36.88
2017-06-10T06:10:00.077Z,37.02
2017-06-10T06:11:00.092Z,37.2
2017-06-10T06:11:59.806Z,37.27
2017-06-10T06:13:00.128Z,37.39
2017-06-10T06:14:00.144Z,37.47
2017-06-10T06:15:00.157Z,37.46
2017-06-10T06:16:00.171Z,37.46
2017-06-10T06:17:00.186Z,37.51
2017-06-10T06:17:59.926Z,37.46
2017-06-10T06:19:00.224Z,37.47
2017-06-10T06:20:00.236Z,37.5
2017-06-10T06:21:00.251Z,37.43
2017-06-10T06:22:00.269Z,37.56
2017-06-10T06:23:00.285Z,37.46
2017-06-10T06:24:00.304Z,37.4
2017-06-10T06:25:00.323Z,37.49
2017-06-10T06:26:00.337Z,37.4
2017-06-10T06:27:00.357Z,37.34
2017-06-10T06:28:00.368Z,37.2
2017-06-10T06:29:00.386Z,37.17
2017-06-10T06:30:00.404Z,37.17
2017-06-10T06:31:00.421Z,37.15
2017-06-10T06:32:00.140Z,37.21
2017-06-10T06:33:00.457Z,37.27
2017-06-10T06:34:00.472Z,37.2
2017-06-10T06:35:00.490Z,37.03
2017-06-10T06:36:00.507Z,36.73
2017-06-10T06:37:00.221Z,36.54
2017-06-10T06:38:00.544Z,36.43
2017-06-10T06:39:00.558Z,36.44
2017-06-10T06:40:00.576Z,36.5
2017-06-10T06:41:00.595Z,36.43
2017-06-10T06:42:00.612Z,36.43
2017-06-10T06:43:00.629Z,36.32
2017-06-10T06:44:00.641Z,36.37
2017-06-10T06:45:00.669Z,36.5
2017-06-10T06:46:00.676Z,36.46
2017-06-10T06:47:00.694Z,36.32
2017-06-10T06:48:00.713Z,36.39
2017-06-10T06:49:00.727Z,36.49
2017-06-10T06:50:00.744Z,36.53
2017-06-10T06:51:00.456Z,36.56
2017-06-10T06:52:00.776Z,36.38
2017-06-10T06:53:00.793Z,36.43
2017-06-10T06:54:00.808Z,36.49
2017-06-10T06:55:00.825Z,36.39
2017-06-10T06:56:00.841Z,36.37
2017-06-10T06:57:00.555Z,36.28
2017-06-10T06:58:00.871Z,36.12
2017-06-10T06:59:00.887Z,36.27
2017-06-10T07:00:00.610Z,36.22
2017-06-10T07:01:00.926Z,36.22
2017-06-10T07:02:00.936Z,36.35
2017-06-10T07:03:00.951Z,36.32
2017-06-10T07:04:00.968Z,36.37
2017-06-10T07:05:00.985Z,36.15
2017-06-10T07:06:01.001Z,36.17
2017-06-10T07:07:01.016Z,36
2017-06-10T07:08:01.031Z,35.85
2017-06-10T07:09:01.046Z,35.77
2017-06-10T07:10:01.064Z,35.63
2017-06-10T07:11:01.078Z,35.68
2017-06-10T07:12:01.093Z,35.59
2017-06-10T07:13:01.108Z,35.65
2017-06-10T07:14:01.128Z,35.62
2017-06-10T07:15:01.141Z,35.62
2017-06-10T07:16:00.857Z,35.62
2017-06-10T07:17:01.172Z,35.59
2017-06-10T07:18:01.188Z,35.47
2017-06-10T07:19:01.205Z,35.41
2017-06-10T07:20:01.218Z,35.4
2017-06-10T07:21:01.234Z,35.43
2017-06-10T07:22:01.254Z,35.45
2017-06-10T07:23:01.270Z,35.44
2017-06-10T07:24:01.278Z,35.5
2017-06-10T07:25:01.296Z,35.6
2017-06-10T07:26:01.310Z,35.65
2017-06-10T07:27:01.024Z,35.59
2017-06-10T07:28:01.044Z,35.66
2017-06-10T07:29:01.366Z,35.71
2017-06-10T07:30:01.384Z,35.8
2017-06-10T07:31:01.389Z,35.68
2017-06-10T07:32:01.406Z,35.68
2017-06-10T07:33:01.423Z,35.59
2017-06-10T07:34:01.435Z,35.65
2017-06-10T07:35:01.453Z,35.59
2017-06-10T07:36:01.167Z,35.68
2017-06-10T07:37:01.179Z,35.65
2017-06-10T07:38:01.499Z,35.62
2017-06-10T07:39:01.515Z,35.4
2017-06-10T07:40:01.534Z,35.19
2017-06-10T07:41:01.547Z,35.18
2017-06-10T07:42:01.561Z,34.92
2017-06-10T07:43:01.582Z,34.92
2017-06-10T07:44:01.292Z,34.91
2017-06-10T07:45:01.610Z,34.88
2017-06-10T07:46:01.632Z,34.8
2017-06-10T07:47:01.644Z,34.78
2017-06-10T07:48:01.666Z,34.61
2017-06-10T07:49:01.673Z,34.49
2017-06-10T07:50:01.387Z,34.4
2017-06-10T07:51:01.706Z,34.22
2017-06-10T07:52:01.724Z,34.09
2017-06-10T07:53:01.435Z,34.08
2017-06-10T07:54:01.754Z,33.98
2017-06-10T07:55:01.771Z,33.91
2017-06-10T07:56:01.785Z,33.87
2017-06-10T07:57:01.804Z,33.75
2017-06-10T07:58:01.816Z,33.78
2017-06-10T07:59:01.832Z,33.79
2017-06-10T08:00:01.841Z,33.76
2017-06-10T08:01:01.555Z,33.59
2017-06-10T08:02:01.873Z,33.32
2017-06-10T08:03:01.596Z,33.15
2017-06-10T08:04:01.897Z,33.07
2017-06-10T08:05:01.610Z,33.03
2017-06-10T08:06:01.625Z,33.18
2017-06-10T08:07:01.938Z,33.14
2017-06-10T08:08:01.952Z,32.85
2017-06-10T08:09:01.965Z,32.81
2017-06-10T08:10:01.676Z,32.79
2017-06-10T08:11:01.991Z,32.57
2017-06-10T08:12:02.003Z,32.29
2017-06-10T08:13:02.018Z,32.19
2017-06-10T08:14:01.729Z,32.15
2017-06-10T08:15:01.748Z,32.04
2017-06-10T08:16:02.056Z,31.86
2017-06-10T08:17:01.765Z,31.8
2017-06-10T08:18:02.080Z,31.76
2017-06-10T08:19:01.796Z,31.92
2017-06-10T08:20:02.106Z,31.73
2017-06-10T08:21:02.118Z,31.75
2017-06-10T08:22:02.137Z,31.69
2017-06-10T08:23:02.145Z,31.65
2017-06-10T08:24:02.157Z,31.61
2017-06-10T08:25:02.168Z,31.57
2017-06-10T08:26:01.879Z,31.54
2017-06-10T08:27:02.193Z,31.46
2017-06-10T08:28:02.204Z,31.34
2017-06-10T08:29:02.215Z,31.57
2017-06-10T08:30:02.227Z,31.89
2017-06-10T08:31:02.240Z,32.03
2017-06-10T08:32:02.251Z,32.25
2017-06-10T08:33:02.264Z,32.43
2017-06-10T08:34:02.275Z,32.55
2017-06-10T08:35:02.289Z,32.72
2017-06-10T08:36:02.299Z,32.79
2017-06-10T08:37:02.313Z,32.77
2017-06-10T08:38:02.329Z,32.75
2017-06-10T08:39:02.339Z,32.29
2017-06-10T08:40:02.355Z,31.93
2017-06-10T08:41:02.725Z,31.58
2017-06-10T08:42:02.075Z,31.38
2017-06-10T08:43:02.388Z,31.47
2017-06-10T08:44:02.403Z,31.5
2017-06-10T08:45:02.414Z,31.32
2017-06-10T08:46:02.437Z,31.13
2017-06-10T08:47:02.442Z,30.92
2017-06-10T08:48:02.450Z,30.92
2017-06-10T08:49:02.469Z,30.73
2017-06-10T08:50:02.475Z,30.77
2017-06-10T08:51:02.787Z,30.73
2017-06-10T08:52:02.500Z,30.65
2017-06-10T08:53:02.512Z,30.64
2017-06-10T08:54:02.524Z,30.46
2017-06-10T08:55:02.536Z,30.26
2017-06-10T08:56:02.245Z,30.08
2017-06-10T08:57:02.557Z,29.85
2017-06-10T08:58:02.569Z,29.6
2017-06-10T08:59:02.581Z,29.49
2017-06-10T09:00:02.591Z,29.43
2017-06-10T09:01:02.605Z,29.39
2017-06-10T09:02:02.610Z,29.33
2017-06-10T09:03:02.315Z,29.36
2017-06-10T09:04:02.329Z,29.3
2017-06-10T09:05:02.643Z,29.24
2017-06-10T09:06:02.648Z,29.21
2017-06-10T09:07:02.662Z,29.06
2017-06-10T09:08:02.670Z,29.12
2017-06-10T09:09:02.373Z,28.96
2017-06-10T09:10:02.686Z,28.76
2017-06-10T09:11:02.698Z,28.41
2017-06-10T09:12:02.703Z,28.21
2017-06-10T09:13:02.713Z,28.02
2017-06-10T09:14:02.722Z,27.88
2017-06-10T09:15:02.724Z,27.78
2017-06-10T09:16:02.432Z,27.67
2017-06-10T09:17:02.742Z,27.7
2017-06-10T09:18:02.444Z,27.65
2017-06-10T09:19:02.757Z,27.74
2017-06-10T09:20:02.466Z,27.69
2017-06-10T09:21:02.771Z,27.75
2017-06-10T09:22:02.780Z,27.75
2017-06-10T09:23:02.784Z,27.7
2017-06-10T09:24:02.792Z,27.66
2017-06-10T09:25:02.800Z,27.51
2017-06-10T09:26:02.802Z,27.28
2017-06-10T09:27:02.806Z,27.13
2017-06-10T09:28:02.820Z,27.03
2017-06-10T09:29:02.821Z,27.06
2017-06-10T09:30:02.831Z,26.87
2017-06-10T09:31:02.832Z,26.81
2017-06-10T09:32:02.844Z,26.62
2017-06-10T09:33:02.542Z,26.6
2017-06-10T09:34:02.849Z,26.58
2017-06-10T09:35:02.855Z,26.51
2017-06-10T09:36:02.864Z,26.58
2017-06-10T09:38:03.276Z,26.58
2017-06-10T09:39:02.572Z,26.62
2017-06-10T09:40:02.881Z,26.62
2017-06-10T09:41:02.887Z,26.54
2017-06-10T09:42:02.891Z,26.54
2017-06-10T09:43:02.897Z,26.57
2017-06-10T09:44:02.902Z,26.6
2017-06-10T09:45:02.907Z,26.43
2017-06-10T09:46:02.912Z,26.43
2017-06-10T09:47:02.915Z,26.44
2017-06-10T09:48:02.920Z,26.4
2017-06-10T09:49:02.924Z,26.43
2017-06-10T09:50:02.947Z,26.45
2017-06-10T09:51:02.936Z,26.63
2017-06-10T09:52:02.635Z,26.67
2017-06-10T09:53:02.945Z,26.76
2017-06-10T09:54:02.948Z,26.85
2017-06-10T09:55:02.956Z,26.77
2017-06-10T09:56:02.962Z,26.67
2017-06-10T09:57:02.660Z,26.57
2017-06-10T09:58:02.667Z,26.6
2017-06-10T09:59:02.973Z,26.55
2017-06-10T10:00:02.979Z,26.52
2017-06-10T10:01:02.982Z,26.3
2017-06-10T10:02:02.987Z,26.09
2017-06-10T10:03:02.990Z,26.09
2017-06-10T10:04:02.999Z,26.07
2017-06-10T10:05:03.001Z,25.99
2017-06-10T10:06:02.704Z,26.05
2017-06-10T10:07:02.706Z,26.01
2017-06-10T10:08:03.018Z,26.01
2017-06-10T10:09:03.019Z,26.01
2017-06-10T10:10:03.030Z,26.17
2017-06-10T10:11:03.028Z,26.17
2017-06-10T10:12:03.033Z,26.35
2017-06-10T10:13:03.035Z,26.33
2017-06-10T10:14:03.042Z,26.26
2017-06-10T10:15:03.048Z,26.37
2017-06-10T10:16:03.053Z,26.44
2017-06-10T10:17:03.055Z,26.51
2017-06-10T10:18:03.058Z,26.51
2017-06-10T10:19:03.063Z,26.48
2017-06-10T10:20:03.069Z,26.43
2017-06-10T10:21:03.075Z,26.4
2017-06-10T10:22:02.774Z,26.25
2017-06-10T10:23:03.292Z,25.98
2017-06-10T10:24:03.086Z,25.99
2017-06-10T10:25:03.093Z,25.99
2017-06-10T10:26:03.093Z,25.83
2017-06-10T10:27:03.101Z,25.99
2017-06-10T10:28:03.108Z,26.01
2017-06-10T10:29:03.111Z,26.1
2017-06-10T10:30:03.116Z,26.29
2017-06-10T10:31:03.123Z,26.36
2017-06-10T10:32:03.121Z,26.52
2017-06-10T10:33:03.127Z,26.77
2017-06-10T10:36:03.140Z,27.06
2017-06-10T10:37:03.147Z,26.99
2017-06-10T10:38:03.151Z,26.85
2017-06-10T10:39:03.155Z,26.84
2017-06-10T10:40:03.161Z,26.92
2017-06-10T10:41:03.164Z,26.87
2017-06-10T10:42:03.167Z,26.92
2017-06-10T10:43:03.174Z,26.99
2017-06-10T10:44:03.178Z,26.95
2017-06-10T10:45:03.183Z,26.92
2017-06-10T10:46:03.192Z,26.85
2017-06-10T10:47:03.193Z,26.84
2017-06-10T10:48:03.202Z,26.67
2017-06-10T10:49:03.202Z,26.65
2017-06-10T10:50:03.209Z,26.65
2017-06-10T10:51:03.214Z,26.67
2017-06-10T10:52:03.218Z,26.55
2017-06-10T10:53:03.229Z,26.5
2017-06-10T10:54:03.232Z,26.39
2017-06-10T10:55:03.233Z,26.37
2017-06-10T10:56:03.242Z,26.35
2017-06-10T10:57:03.242Z,26.23
2017-06-10T10:58:03.247Z,26.21
2017-06-10T10:59:03.255Z,26.25
2017-06-10T11:00:03.259Z,26.23
2017-06-10T11:01:03.265Z,26.33
2017-06-10T11:02:03.264Z,26.44
2017-06-10T11:03:03.273Z,26.47
2017-06-10T11:04:02.972Z,26.57
2017-06-10T11:05:03.279Z,26.4
2017-06-10T11:06:02.978Z,26.36
2017-06-10T11:07:02.987Z,26.3
2017-06-10T11:08:03.291Z,26.25
2017-06-10T11:09:03.294Z,26.25
2017-06-10T11:10:03.303Z,26.21
2017-06-10T11:11:03.305Z,26.28
2017-06-10T11:12:03.309Z,26.25
2017-06-10T11:13:03.014Z,26.23
2017-06-10T11:14:03.319Z,26.07
2017-06-10T11:15:03.321Z,25.8
2017-06-10T11:16:03.324Z,25.58
2017-06-10T11:17:03.327Z,25.38
2017-06-10T11:18:03.332Z,25.15
2017-06-10T11:19:03.337Z,25.05
2017-06-10T11:20:03.341Z,25.05
2017-06-10T11:21:03.342Z,24.93
2017-06-10T11:22:03.346Z,24.98
2017-06-10T11:23:03.350Z,24.91
2017-06-10T11:24:03.353Z,24.95
2017-06-10T11:25:03.359Z,24.98
2017-06-10T11:26:03.362Z,25.03
2017-06-10T11:27:02.760Z,25.13
2017-06-10T11:28:03.063Z,25.21
2017-06-10T11:29:03.370Z,25.32
2017-06-10T11:30:03.371Z,25.51
2017-06-10T11:31:03.378Z,25.61
2017-06-10T11:32:03.381Z,25.7
2017-06-10T11:33:03.383Z,25.88
2017-06-10T11:34:03.387Z,25.97
2017-06-10T11:35:03.391Z,26.05
2017-06-10T11:36:03.398Z,26.09
2017-06-10T11:37:03.096Z,26.01
2017-06-10T11:38:03.399Z,26.07
2017-06-10T11:39:03.406Z,26.02
2017-06-10T11:40:03.406Z,26.17
2017-06-10T11:41:03.108Z,26.15
2017-06-10T11:42:03.414Z,26.23
2017-06-10T11:43:02.815Z,26.37
2017-06-10T11:44:02.817Z,26.37
2017-06-10T11:45:03.427Z,26.54
2017-06-10T11:46:03.434Z,26.69
2017-06-10T11:47:03.132Z,26.8
2017-06-10T11:48:03.441Z,26.85
2017-06-10T11:49:03.138Z,26.88
2017-06-10T11:50:02.838Z,26.92
2017-06-10T11:51:03.450Z,27.02
2017-06-10T11:52:03.453Z,27.02
2017-06-10T11:53:03.461Z,27.03
2017-06-10T11:54:03.461Z,27
2017-06-10T11:55:03.466Z,26.84
2017-06-10T11:56:03.473Z,26.73
2017-06-10T11:57:03.472Z,26.72
2017-06-10T11:58:03.477Z,26.82
2017-06-10T11:59:03.482Z,26.82
2017-06-10T12:00:03.487Z,26.87
2017-06-10T12:01:03.492Z,26.88
2017-06-10T12:02:03.497Z,26.99
2017-06-10T12:03:03.503Z,27.04
2017-06-10T12:04:03.506Z,26.97
2017-06-10T12:05:03.207Z,26.99
2017-06-10T12:06:03.514Z,27.02
2017-06-10T12:07:03.219Z,27.03
2017-06-10T12:08:03.526Z,26.88
2017-06-10T12:09:03.530Z,26.84
2017-06-10T12:10:03.542Z,26.67
2017-06-10T12:11:03.887Z,26.65
2017-06-10T12:12:03.541Z,26.72
2017-06-10T12:13:03.544Z,26.69
2017-06-10T12:14:03.550Z,26.66
2017-06-10T12:15:03.559Z,26.76
2017-06-10T12:16:03.558Z,26.81
2017-06-10T12:17:03.566Z,26.85
2017-06-10T12:18:03.568Z,26.8
2017-06-10T12:19:03.270Z,26.76
2017-06-10T12:20:03.274Z,26.76
2017-06-10T12:21:03.280Z,26.84
2017-06-10T12:22:03.289Z,26.77
2017-06-10T12:23:03.285Z,26.76
2017-06-10T12:24:03.597Z,26.84
2017-06-10T12:25:03.607Z,26.8
2017-06-10T12:26:03.607Z,26.82
2017-06-10T12:27:03.607Z,26.81
2017-06-10T12:28:03.612Z,26.72
2017-06-10T12:29:03.315Z,26.91
2017-06-10T12:30:03.321Z,26.81
2017-06-10T12:31:03.630Z,26.77
2017-06-10T12:32:03.667Z,26.88
2017-06-10T12:33:03.334Z,26.97
2017-06-10T12:34:03.638Z,26.92
2017-06-10T12:35:03.344Z,26.99
2017-06-10T12:36:03.654Z,26.94
2017-06-10T12:37:03.659Z,26.89
2017-06-10T12:38:03.354Z,26.92
2017-06-10T12:39:03.661Z,26.91
2017-06-10T12:40:03.667Z,27.04
2017-06-10T12:41:03.672Z,27.03
2017-06-10T12:42:03.677Z,26.97
2017-06-10T12:43:03.678Z,26.97
2017-06-10T12:44:03.684Z,26.81
2017-06-10T12:45:03.384Z,26.55
2017-06-10T12:46:03.692Z,26.36
2017-06-10T12:47:03.698Z,26.1
2017-06-10T12:48:03.700Z,25.97
2017-06-10T12:49:03.709Z,26.01
2017-06-10T12:50:03.709Z,25.97
2017-06-10T12:51:03.713Z,25.9
2017-06-10T12:52:03.717Z,25.94
2017-06-10T12:53:03.719Z,26.01
2017-06-10T12:54:03.424Z,26.05
2017-06-10T12:55:03.425Z,26.05
2017-06-10T12:56:03.733Z,26.2
2017-06-10T12:57:03.737Z,26.29
2017-06-10T12:58:03.742Z,26.43